Time;durP1;ratioP1;P1;durP2;ratioP2;P2;SDS_P1;SDS_P2;PMS_P1;PMS_P2;Temp;Humidity;BMP_temperature;BMP_pressure;BME280_temperature;BME280_humidity;BME280_pressure;Samples;Min_cycle;Max_cycle;Signal;HPM_P1;HPM_P2
2022/03/03 00:00:38;;;;;;;27.53;20.47;;;;;;;;;;2057076;28;20643;-57
2022/03/03 00:01:39;;;;;;;28.30;21.00;;;;;;;;;;2056793;28;20726;-55
2022/03/03 00:02:39;;;;;;;26.23;20.07;;;;;;;;;;2056783;28;20209;-58
2022/03/03 00:03:40;;;;;;;30.00;21.20;;;;;;;;;;2057296;28;20538;-57
2022/03/03 00:04:40;;;;;;;30.70;22.20;;;;;;;;;;2056921;28;20670;-55
2022/03/03 00:05:40;;;;;;;27.47;20.23;;;;;;;;;;2057241;28;20571;-57
2022/03/03 00:06:40;;;;;;;31.80;21.97;;;;;;;;;;2056628;28;20271;-55
2022/03/03 00:07:41;;;;;;;28.67;22.17;;;;;;;;;;2056884;28;20607;-55
2022/03/03 00:08:41;;;;;;;31.47;23.23;;;;;;;;;;2057383;28;20284;-55
2022/03/03 00:09:41;;;;;;;30.47;21.93;;;;;;;;;;2057168;28;20178;-56
2022/03/03 00:10:41;;;;;;;27.63;21.13;;;;;;;;;;2056506;28;20216;-56
2022/03/03 00:11:42;;;;;;;29.37;21.70;;;;;;;;;;2056554;28;20186;-55
2022/03/03 00:12:42;;;;;;;29.23;21.83;;;;;;;;;;2056487;28;20573;-59
2022/03/03 00:13:42;;;;;;;30.13;22.97;;;;;;;;;;2057329;28;20178;-57
2022/03/03 00:14:42;;;;;;;31.27;21.57;;;;;;;;;;2056934;28;20183;-56
2022/03/03 00:15:43;;;;;;;29.70;23.23;;;;;;;;;;2057391;28;20269;-57
2022/03/03 00:16:43;;;;;;;32.23;22.97;;;;;;;;;;2057173;28;20174;-56
2022/03/03 00:17:43;;;;;;;32.33;23.27;;;;;;;;;;2057148;28;20187;-58
2022/03/03 00:18:44;;;;;;;33.27;23.27;;;;;;;;;;2056830;28;20410;-57
2022/03/03 00:19:44;;;;;;;33.00;23.03;;;;;;;;;;2057161;28;20186;-55
2022/03/03 00:20:45;;;;;;;32.67;22.77;;;;;;;;;;2056868;28;20240;-57
2022/03/03 00:21:45;;;;;;;33.63;22.37;;;;;;;;;;2056905;28;20629;-55
2022/03/03 00:22:45;;;;;;;29.87;21.60;;;;;;;;;;2057485;28;20182;-57
2022/03/03 00:23:45;;;;;;;33.63;23.10;;;;;;;;;;2056653;28;20220;-59
2022/03/03 00:24:46;;;;;;;29.73;22.37;;;;;;;;;;2056275;28;20198;-56
2022/03/03 00:25:46;;;;;;;31.47;23.13;;;;;;;;;;2057148;28;20186;-58
2022/03/03 00:26:46;;;;;;;30.00;21.77;;;;;;;;;;2057208;28;20179;-57
2022/03/03 00:27:46;;;;;;;30.67;21.93;;;;;;;;;;2057271;28;20253;-57
2022/03/03 00:28:47;;;;;;;31.30;21.87;;;;;;;;;;2057258;28;20631;-59
2022/03/03 00:29:47;;;;;;;29.43;21.53;;;;;;;;;;2055724;28;20202;-57
2022/03/03 00:30:47;;;;;;;31.90;23.00;;;;;;;;;;2057377;28;20322;-57
2022/03/03 00:31:47;;;;;;;31.13;21.73;;;;;;;;;;2056731;28;20199;-57
2022/03/03 00:32:48;;;;;;;29.60;22.90;;;;;;;;;;2056679;28;20213;-57
2022/03/03 00:33:48;;;;;;;29.50;21.40;;;;;;;;;;2056592;28;20181;-56
2022/03/03 00:34:48;;;;;;;29.50;23.17;;;;;;;;;;2056809;28;20272;-57
2022/03/03 00:35:48;;;;;;;29.13;21.50;;;;;;;;;;2060525;28;20167;-59
2022/03/03 00:36:49;;;;;;;30.90;21.33;;;;;;;;;;2061332;28;20635;-56
2022/03/03 00:37:49;;;;;;;33.63;23.77;;;;;;;;;;2061249;28;20190;-59
2022/03/03 00:38:49;;;;;;;29.63;22.50;;;;;;;;;;2061205;28;20170;-55
2022/03/03 00:39:50;;;;;;;33.37;23.03;;;;;;;;;;2061078;28;20651;-58
2022/03/03 00:40:50;;;;;;;31.63;22.53;;;;;;;;;;2061160;28;20185;-58
2022/03/03 00:41:50;;;;;;;38.23;26.27;;;;;;;;;;2059687;28;20174;-56
2022/03/03 00:42:50;;;;;;;43.80;29.80;;;;;;;;;;2056722;28;20853;-55
2022/03/03 00:43:51;;;;;;;44.20;29.73;;;;;;;;;;2058112;28;20667;-57
2022/03/03 00:44:51;;;;;;;38.03;27.30;;;;;;;;;;2054120;28;20229;-57
2022/03/03 00:45:51;;;;;;;43.50;28.53;;;;;;;;;;2050698;28;20186;-56
2022/03/03 00:46:52;;;;;;;40.67;28.00;;;;;;;;;;2056533;28;20231;-55
2022/03/03 00:47:52;;;;;;;50.60;32.00;;;;;;;;;;2056297;28;20163;-60
2022/03/03 00:48:54;;;;;;;44.33;29.27;;;;;;;;;;2057219;28;20253;-55
2022/03/03 00:49:54;;;;;;;56.43;36.07;;;;;;;;;;2056317;28;20662;-56
2022/03/03 00:50:55;;;;;;;47.47;31.17;;;;;;;;;;2056385;28;20444;-56
2022/03/03 00:51:55;;;;;;;33.37;23.50;;;;;;;;;;2057162;28;20186;-58
2022/03/03 00:52:55;;;;;;;31.73;21.83;;;;;;;;;;2057072;28;20213;-57
2022/03/03 00:53:56;;;;;;;31.77;23.70;;;;;;;;;;2057058;28;20197;-56
2022/03/03 00:54:56;;;;;;;32.80;22.63;;;;;;;;;;2056892;28;20615;-56
2022/03/03 00:55:56;;;;;;;33.90;23.40;;;;;;;;;;2057082;28;20604;-58
2022/03/03 00:56:56;;;;;;;31.73;22.70;;;;;;;;;;2057105;28;20182;-58
2022/03/03 00:57:56;;;;;;;29.67;23.03;;;;;;;;;;2057138;28;20530;-57
2022/03/03 00:58:57;;;;;;;28.83;22.90;;;;;;;;;;2056571;28;20178;-55
2022/03/03 00:59:57;;;;;;;28.00;22.40;;;;;;;;;;2056474;28;20635;-55
2022/03/03 01:00:57;;;;;;;28.63;22.73;;;;;;;;;;2056779;28;20257;-58
2022/03/03 01:01:57;;;;;;;30.90;22.63;;;;;;;;;;2057013;28;20174;-57
2022/03/03 01:02:58;;;;;;;32.47;23.77;;;;;;;;;;2057182;28;20181;-56
2022/03/03 01:03:58;;;;;;;31.97;22.57;;;;;;;;;;2055312;28;20257;-55
2022/03/03 01:04:58;;;;;;;33.97;23.73;;;;;;;;;;2051917;28;20288;-57
2022/03/03 01:05:59;;;;;;;29.70;21.20;;;;;;;;;;2056098;28;20229;-59
2022/03/03 01:06:59;;;;;;;30.40;22.13;;;;;;;;;;2054833;28;20257;-58
2022/03/03 01:07:59;;;;;;;31.57;22.10;;;;;;;;;;2057874;28;20182;-55
2022/03/03 01:08:59;;;;;;;29.23;21.53;;;;;;;;;;2056816;28;20651;-57
2022/03/03 01:10:00;;;;;;;33.43;22.57;;;;;;;;;;2058139;28;20205;-59
2022/03/03 01:11:00;;;;;;;28.20;20.90;;;;;;;;;;2058348;28;20182;-55
2022/03/03 01:12:00;;;;;;;30.57;22.57;;;;;;;;;;2058585;28;20717;-54
2022/03/03 01:13:00;;;;;;;30.90;21.83;;;;;;;;;;2057621;28;20190;-55
2022/03/03 01:14:01;;;;;;;32.90;24.07;;;;;;;;;;2057178;28;20183;-56
2022/03/03 01:15:02;;;;;;;28.63;22.67;;;;;;;;;;2058394;28;20205;-54
2022/03/03 01:16:03;;;;;;;31.93;23.73;;;;;;;;;;2057612;28;20174;-56
2022/03/03 01:17:03;;;;;;;35.43;25.53;;;;;;;;;;2057986;28;20502;-59
2022/03/03 01:18:04;;;;;;;41.33;26.50;;;;;;;;;;2058235;28;20194;-57
2022/03/03 01:19:04;;;;;;;40.90;27.50;;;;;;;;;;2058538;28;20166;-58
2022/03/03 01:20:06;;;;;;;44.43;28.57;;;;;;;;;;2057776;28;20284;-56
2022/03/03 01:21:06;;;;;;;43.10;30.17;;;;;;;;;;2057788;28;20671;-55
2022/03/03 01:22:07;;;;;;;39.00;28.00;;;;;;;;;;2058475;28;20412;-57
2022/03/03 01:23:07;;;;;;;40.13;27.37;;;;;;;;;;2057906;28;20174;-57
2022/03/03 01:24:07;;;;;;;35.87;26.53;;;;;;;;;;2057863;28;20195;-57
2022/03/03 01:25:08;;;;;;;33.97;25.70;;;;;;;;;;2058748;28;20201;-57
2022/03/03 01:26:08;;;;;;;35.47;26.67;;;;;;;;;;2058577;28;20237;-57
2022/03/03 01:27:08;;;;;;;38.17;25.13;;;;;;;;;;2058110;28;20202;-56
2022/03/03 01:28:08;;;;;;;34.93;24.97;;;;;;;;;;2057686;28;20166;-58
2022/03/03 01:29:09;;;;;;;38.13;26.53;;;;;;;;;;2058500;28;20245;-56
2022/03/03 01:30:09;;;;;;;29.53;23.83;;;;;;;;;;2058252;28;20189;-57
2022/03/03 01:31:09;;;;;;;36.30;24.77;;;;;;;;;;2058422;28;20189;-56
2022/03/03 01:32:09;;;;;;;36.03;25.60;;;;;;;;;;2057966;28;20186;-57
2022/03/03 01:33:12;;;;;;;34.83;24.60;;;;;;;;;;2057808;28;20652;-55
2022/03/03 01:34:12;;;;;;;34.40;24.73;;;;;;;;;;2053976;28;20211;-56
2022/03/03 01:35:12;;;;;;;33.63;24.17;;;;;;;;;;2054253;28;20570;-58
2022/03/03 01:36:12;;;;;;;32.57;24.27;;;;;;;;;;2056480;28;20552;-56
2022/03/03 01:37:13;;;;;;;32.00;23.27;;;;;;;;;;2057222;28;20171;-56
2022/03/03 01:38:13;;;;;;;34.50;24.70;;;;;;;;;;2057532;28;20600;-56
2022/03/03 01:39:13;;;;;;;31.77;24.13;;;;;;;;;;2057724;28;20515;-57
2022/03/03 01:40:13;;;;;;;32.43;24.97;;;;;;;;;;2057075;28;20698;-59
2022/03/03 01:41:14;;;;;;;32.67;23.37;;;;;;;;;;2057866;28;20265;-58
2022/03/03 01:42:15;;;;;;;34.27;23.90;;;;;;;;;;2056349;28;20167;-57
2022/03/03 01:43:15;;;;;;;30.53;23.30;;;;;;;;;;2057387;28;20217;-54
2022/03/03 01:44:16;;;;;;;33.63;24.47;;;;;;;;;;2057140;28;20787;-56
2022/03/03 01:45:16;;;;;;;32.57;23.97;;;;;;;;;;2058163;28;20386;-54
2022/03/03 01:46:16;;;;;;;32.33;23.43;;;;;;;;;;2057553;28;20186;-56
2022/03/03 01:47:24;;;;;;;32.00;24.17;;;;;;;;;;2058133;28;20209;-57
2022/03/03 01:48:24;;;;;;;35.50;24.83;;;;;;;;;;2058209;28;20536;-57
2022/03/03 01:49:25;;;;;;;32.13;23.77;;;;;;;;;;2057734;28;20424;-55
2022/03/03 01:50:25;;;;;;;32.43;23.20;;;;;;;;;;2057515;28;20491;-56
2022/03/03 01:51:25;;;;;;;31.87;23.63;;;;;;;;;;2057773;28;20252;-57
2022/03/03 01:52:26;;;;;;;33.13;24.03;;;;;;;;;;2058323;28;20224;-55
2022/03/03 01:53:26;;;;;;;34.20;24.77;;;;;;;;;;2058169;28;20555;-55
2022/03/03 01:54:27;;;;;;;32.00;24.57;;;;;;;;;;2057042;28;20181;-57
2022/03/03 01:55:27;;;;;;;30.27;22.47;;;;;;;;;;2057504;28;20186;-55
2022/03/03 01:56:27;;;;;;;33.43;24.60;;;;;;;;;;2058397;28;20189;-56
2022/03/03 01:57:28;;;;;;;31.60;23.07;;;;;;;;;;2057353;28;20170;-57
2022/03/03 01:58:28;;;;;;;34.87;24.37;;;;;;;;;;2057712;28;20183;-55
2022/03/03 01:59:28;;;;;;;32.97;24.00;;;;;;;;;;2057873;28;20202;-58
2022/03/03 02:00:28;;;;;;;32.77;23.90;;;;;;;;;;2057799;28;20178;-56
2022/03/03 02:01:31;;;;;;;32.97;24.53;;;;;;;;;;2057695;28;20378;-56
2022/03/03 02:02:31;;;;;;;33.13;23.80;;;;;;;;;;2058369;28;20185;-58
2022/03/03 02:03:31;;;;;;;30.53;22.57;;;;;;;;;;2058460;28;20492;-58
2022/03/03 02:04:32;;;;;;;34.20;23.27;;;;;;;;;;2058095;28;20194;-59
2022/03/03 02:05:32;;;;;;;34.73;24.63;;;;;;;;;;2058375;28;20605;-57
2022/03/03 02:06:33;;;;;;;34.87;24.30;;;;;;;;;;2057516;28;20162;-56
2022/03/03 02:07:34;;;;;;;32.33;23.83;;;;;;;;;;2057879;28;20576;-54
2022/03/03 02:08:34;;;;;;;31.67;22.77;;;;;;;;;;2057349;28;20181;-57
2022/03/03 02:09:35;;;;;;;29.03;22.10;;;;;;;;;;2057298;28;20270;-57
2022/03/03 02:10:35;;;;;;;34.77;23.97;;;;;;;;;;2057819;28;20174;-57
2022/03/03 02:11:35;;;;;;;34.50;24.87;;;;;;;;;;2058188;28;20700;-56
2022/03/03 02:12:36;;;;;;;31.07;24.03;;;;;;;;;;2057600;28;20181;-54
2022/03/03 02:13:36;;;;;;;34.00;23.77;;;;;;;;;;2057300;28;20182;-58
2022/03/03 02:14:56;;;;;;;37.67;25.87;;;;;;;;;;2057754;28;20197;-56
2022/03/03 02:15:57;;;;;;;36.77;25.10;;;;;;;;;;2057655;28;20182;-56
2022/03/03 02:16:57;;;;;;;33.23;23.93;;;;;;;;;;2058217;28;20428;-55
2022/03/03 02:17:57;;;;;;;34.97;25.03;;;;;;;;;;2058294;28;20268;-57
2022/03/03 02:18:58;;;;;;;37.50;25.87;;;;;;;;;;2057736;28;20455;-55
2022/03/03 02:19:58;;;;;;;34.97;25.73;;;;;;;;;;2058373;28;20163;-55
2022/03/03 02:20:58;;;;;;;37.70;25.43;;;;;;;;;;2058188;28;20256;-57
2022/03/03 02:21:59;;;;;;;38.13;25.33;;;;;;;;;;2057740;28;20241;-57
2022/03/03 02:22:59;;;;;;;36.17;26.57;;;;;;;;;;2058371;28;20174;-58
2022/03/03 02:24:00;;;;;;;34.77;24.73;;;;;;;;;;2062813;28;20181;-60
2022/03/03 02:25:00;;;;;;;35.33;25.43;;;;;;;;;;2061756;28;20229;-59
2022/03/03 02:26:00;;;;;;;37.13;26.17;;;;;;;;;;2062080;28;20170;-56
2022/03/03 02:27:01;;;;;;;34.97;26.53;;;;;;;;;;2062164;28;20176;-58
2022/03/03 02:28:01;;;;;;;37.57;26.00;;;;;;;;;;2063082;28;20203;-58
2022/03/03 02:29:02;;;;;;;36.67;28.23;;;;;;;;;;2063149;28;20546;-60
2022/03/03 02:30:02;;;;;;;38.57;28.30;;;;;;;;;;2062446;28;20232;-59
2022/03/03 02:31:03;;;;;;;40.00;27.23;;;;;;;;;;2063753;28;20174;-60
2022/03/03 02:32:05;;;;;;;39.63;28.30;;;;;;;;;;2058130;28;20635;-58
2022/03/03 02:33:05;;;;;;;39.33;28.00;;;;;;;;;;2058103;28;20539;-59
2022/03/03 02:34:06;;;;;;;38.03;27.63;;;;;;;;;;2057807;28;20407;-60
2022/03/03 02:35:07;;;;;;;38.53;27.83;;;;;;;;;;2081671;23;20331;-61
2022/03/03 02:36:18;;;;;;;39.63;27.27;;;;;;;;;;2066679;28;20166;-58
2022/03/03 02:37:18;;;;;;;36.63;25.63;;;;;;;;;;2064501;28;20426;-58
2022/03/03 02:38:18;;;;;;;37.57;27.30;;;;;;;;;;2057186;28;20447;-61
2022/03/03 02:39:19;;;;;;;38.53;28.20;;;;;;;;;;2057571;28;20196;-61
2022/03/03 02:40:22;;;;;;;38.77;27.73;;;;;;;;;;2066638;28;20169;-58
2022/03/03 02:41:24;;;;;;;40.97;29.43;;;;;;;;;;2065710;28;20200;-61
2022/03/03 02:42:24;;;;;;;44.10;29.40;;;;;;;;;;2066865;28;20465;-61
2022/03/03 02:43:24;;;;;;;38.77;29.47;;;;;;;;;;2066272;28;20426;-59
2022/03/03 02:44:24;;;;;;;40.90;27.33;;;;;;;;;;2065505;28;20174;-58
2022/03/03 02:45:25;;;;;;;42.80;30.20;;;;;;;;;;2065907;28;20224;-63
2022/03/03 02:46:25;;;;;;;40.43;28.47;;;;;;;;;;2066342;28;20168;-56
2022/03/03 02:47:25;;;;;;;39.27;28.27;;;;;;;;;;2066425;28;20555;-61
2022/03/03 02:48:26;;;;;;;38.13;27.77;;;;;;;;;;2066343;28;20189;-56
2022/03/03 02:49:26;;;;;;;41.20;28.83;;;;;;;;;;2057251;28;20269;-58
2022/03/03 02:50:28;;;;;;;38.50;29.87;;;;;;;;;;2057766;28;20226;-59
2022/03/03 02:51:28;;;;;;;41.90;29.63;;;;;;;;;;2057693;28;20437;-61
2022/03/03 02:52:28;;;;;;;39.13;30.03;;;;;;;;;;2065997;28;20426;-59
2022/03/03 02:53:29;;;;;;;46.17;29.83;;;;;;;;;;2066078;28;20654;-57
2022/03/03 02:54:29;;;;;;;36.30;27.80;;;;;;;;;;2056940;28;20193;-60
2022/03/03 02:55:29;;;;;;;42.00;29.53;;;;;;;;;;2057427;28;20290;-62
2022/03/03 02:56:29;;;;;;;40.37;28.43;;;;;;;;;;2065820;28;20196;-59
2022/03/03 02:58:48;;;;;;;36.37;27.90;;;;;;;;;;2059810;28;20180;-59
2022/03/03 02:59:49;;;;;;;43.43;30.13;;;;;;;;;;2065723;28;20411;-60
2022/03/03 03:00:49;;;;;;;38.73;28.20;;;;;;;;;;2065941;28;20183;-57
2022/03/03 03:01:49;;;;;;;43.27;30.43;;;;;;;;;;2065580;28;20174;-57
2022/03/03 03:02:50;;;;;;;41.53;29.03;;;;;;;;;;2064038;28;20201;-59
2022/03/03 03:03:50;;;;;;;39.73;28.50;;;;;;;;;;2058962;28;20209;-60
2022/03/03 03:04:50;;;;;;;43.93;29.80;;;;;;;;;;2059330;28;20174;-57
2022/03/03 03:05:51;;;;;;;40.53;29.37;;;;;;;;;;2066084;28;20188;-60
2022/03/03 03:06:51;;;;;;;40.57;28.77;;;;;;;;;;2064988;28;20213;-58
2022/03/03 03:07:51;;;;;;;35.63;26.53;;;;;;;;;;2060029;28;20197;-60
2022/03/03 03:08:51;;;;;;;46.27;29.60;;;;;;;;;;2065098;28;20197;-59
2022/03/03 03:09:52;;;;;;;44.80;31.13;;;;;;;;;;2064103;28;20186;-60
2022/03/03 03:10:53;;;;;;;43.30;30.03;;;;;;;;;;2057107;28;20468;-61
2022/03/03 03:11:53;;;;;;;44.00;30.60;;;;;;;;;;2049142;28;20175;-60
2022/03/03 03:12:53;;;;;;;41.83;29.80;;;;;;;;;;2056956;28;20269;-58
2022/03/03 03:13:53;;;;;;;44.90;31.07;;;;;;;;;;2064862;28;20249;-60
2022/03/03 03:14:54;;;;;;;41.83;29.70;;;;;;;;;;2065158;28;20700;-60
2022/03/03 03:15:54;;;;;;;40.77;29.97;;;;;;;;;;2065992;28;20674;-60
2022/03/03 03:16:54;;;;;;;41.37;28.40;;;;;;;;;;2066060;28;20165;-60
2022/03/03 03:17:54;;;;;;;42.27;29.73;;;;;;;;;;2066338;28;20606;-62
2022/03/03 03:18:55;;;;;;;43.47;29.73;;;;;;;;;;2065884;28;20685;-59
2022/03/03 03:19:55;;;;;;;44.90;29.33;;;;;;;;;;2066281;28;20174;-60
2022/03/03 03:20:55;;;;;;;39.30;28.37;;;;;;;;;;2056951;28;20178;-61
2022/03/03 03:21:56;;;;;;;42.77;28.50;;;;;;;;;;2049345;29;20670;-60
2022/03/03 03:22:56;;;;;;;39.57;29.30;;;;;;;;;;2056256;28;20178;-61
2022/03/03 03:23:56;;;;;;;36.57;28.43;;;;;;;;;;2056587;28;20182;-61
2022/03/03 03:24:56;;;;;;;36.17;27.07;;;;;;;;;;2064176;28;20185;-59
2022/03/03 03:25:57;;;;;;;40.80;28.07;;;;;;;;;;2065135;28;20166;-60
2022/03/03 03:26:57;;;;;;;41.30;26.80;;;;;;;;;;2065228;28;20545;-62
2022/03/03 03:27:57;;;;;;;36.33;28.33;;;;;;;;;;2064069;28;20190;-61
2022/03/03 03:28:58;;;;;;;40.67;29.47;;;;;;;;;;2065510;28;20180;-60
2022/03/03 03:29:58;;;;;;;38.33;28.07;;;;;;;;;;2065519;28;20289;-62
2022/03/03 03:30:58;;;;;;;41.60;28.47;;;;;;;;;;2065804;28;20181;-60
2022/03/03 03:31:58;;;;;;;36.83;26.17;;;;;;;;;;2065744;28;20193;-60
2022/03/03 03:32:59;;;;;;;40.13;26.73;;;;;;;;;;2063444;28;20194;-61
2022/03/03 03:33:59;;;;;;;36.97;26.37;;;;;;;;;;2062030;28;20550;-58
2022/03/03 03:35:00;;;;;;;37.33;25.80;;;;;;;;;;2060812;28;20165;-61
2022/03/03 03:36:00;;;;;;;37.40;26.87;;;;;;;;;;2065391;28;20267;-61
2022/03/03 03:37:00;;;;;;;36.70;24.70;;;;;;;;;;2057245;28;20706;-59
2022/03/03 03:38:01;;;;;;;39.53;25.87;;;;;;;;;;2056992;28;20175;-60
2022/03/03 03:39:01;;;;;;;37.83;25.83;;;;;;;;;;2065909;28;20173;-60
2022/03/03 03:40:03;;;;;;;37.93;26.50;;;;;;;;;;2065579;28;20197;-59
2022/03/03 03:41:03;;;;;;;39.27;26.27;;;;;;;;;;2065870;28;20185;-60
2022/03/03 03:42:03;;;;;;;39.87;28.00;;;;;;;;;;2065333;28;20403;-61
2022/03/03 03:43:04;;;;;;;36.77;25.47;;;;;;;;;;2064740;28;20181;-61
2022/03/03 03:44:04;;;;;;;34.93;24.83;;;;;;;;;;2064969;28;20293;-57
2022/03/03 03:45:05;;;;;;;36.63;26.10;;;;;;;;;;2064772;28;20201;-60
2022/03/03 03:46:05;;;;;;;36.17;25.67;;;;;;;;;;2056960;28;20186;-61
2022/03/03 03:47:06;;;;;;;35.47;26.83;;;;;;;;;;2056821;28;20189;-60
2022/03/03 03:48:06;;;;;;;35.83;25.53;;;;;;;;;;2065298;28;20281;-61
2022/03/03 03:49:06;;;;;;;36.90;25.17;;;;;;;;;;2065192;28;20235;-60
2022/03/03 03:50:08;;;;;;;39.47;27.70;;;;;;;;;;2065350;28;20197;-61
2022/03/03 03:51:08;;;;;;;36.00;25.87;;;;;;;;;;2062569;28;20540;-59
2022/03/03 03:52:08;;;;;;;35.23;26.37;;;;;;;;;;2065370;28;20586;-61
2022/03/03 03:53:10;;;;;;;34.53;25.27;;;;;;;;;;2064949;28;20209;-61
2022/03/03 03:54:10;;;;;;;35.63;26.40;;;;;;;;;;2065310;28;20184;-60
2022/03/03 03:55:11;;;;;;;38.13;26.73;;;;;;;;;;2066020;28;20484;-59
2022/03/03 03:56:12;;;;;;;35.90;25.07;;;;;;;;;;2056629;28;20178;-61
2022/03/03 03:57:12;;;;;;;36.83;25.33;;;;;;;;;;2057114;28;20444;-58
2022/03/03 03:58:12;;;;;;;37.60;25.73;;;;;;;;;;2065109;28;20206;-61
2022/03/03 03:59:13;;;;;;;35.53;24.97;;;;;;;;;;2065923;28;20236;-61
2022/03/03 04:00:14;;;;;;;37.77;27.00;;;;;;;;;;2065358;28;20201;-60
2022/03/03 04:01:14;;;;;;;31.43;24.60;;;;;;;;;;2065498;28;20169;-59
2022/03/03 04:02:14;;;;;;;34.83;24.93;;;;;;;;;;2065660;28;20170;-60
2022/03/03 04:03:14;;;;;;;33.27;23.23;;;;;;;;;;2065472;28;20252;-60
2022/03/03 04:04:15;;;;;;;34.00;23.43;;;;;;;;;;2065064;28;20213;-61
2022/03/03 04:05:15;;;;;;;32.73;24.50;;;;;;;;;;2065419;28;20211;-61
2022/03/03 04:06:16;;;;;;;32.43;23.70;;;;;;;;;;2065436;28;20169;-60
2022/03/03 04:07:16;;;;;;;32.10;22.00;;;;;;;;;;2065521;28;20204;-60
2022/03/03 04:08:18;;;;;;;32.23;22.53;;;;;;;;;;2066151;28;20251;-59
2022/03/03 04:09:18;;;;;;;33.97;23.13;;;;;;;;;;2057590;28;20182;-62
2022/03/03 04:10:19;;;;;;;34.03;22.60;;;;;;;;;;2057786;28;20504;-61
2022/03/03 04:11:19;;;;;;;31.47;23.07;;;;;;;;;;2065804;28;20671;-60
2022/03/03 04:12:19;;;;;;;32.63;23.23;;;;;;;;;;2066010;28;20181;-58
2022/03/03 04:13:21;;;;;;;33.40;23.33;;;;;;;;;;2064982;28;20225;-56
2022/03/03 04:14:21;;;;;;;32.03;24.20;;;;;;;;;;2064803;28;20630;-54
2022/03/03 04:15:21;;;;;;;34.57;24.70;;;;;;;;;;2064865;28;20498;-56
2022/03/03 04:16:21;;;;;;;34.03;23.40;;;;;;;;;;2056473;28;20171;-55
2022/03/03 04:17:22;;;;;;;32.93;22.70;;;;;;;;;;2056309;28;20174;-57
2022/03/03 04:18:22;;;;;;;29.97;23.07;;;;;;;;;;2065011;28;20177;-55
2022/03/03 04:19:22;;;;;;;31.43;23.70;;;;;;;;;;2060765;28;20650;-59
2022/03/03 04:20:23;;;;;;;32.63;23.87;;;;;;;;;;2063047;28;20177;-55
2022/03/03 04:21:23;;;;;;;33.03;23.33;;;;;;;;;;2064267;28;20184;-57
2022/03/03 04:22:23;;;;;;;29.70;22.33;;;;;;;;;;2064954;28;20637;-54
2022/03/03 04:23:23;;;;;;;32.07;23.73;;;;;;;;;;2064484;28;20212;-56
2022/03/03 04:24:24;;;;;;;32.57;23.10;;;;;;;;;;2064884;28;20184;-60
2022/03/03 04:25:24;;;;;;;31.00;23.40;;;;;;;;;;2056875;28;20292;-59
2022/03/03 04:26:24;;;;;;;33.60;23.90;;;;;;;;;;2056455;28;20206;-59
2022/03/03 04:27:25;;;;;;;33.27;21.87;;;;;;;;;;2065139;28;20696;-60
2022/03/03 04:28:25;;;;;;;32.83;22.50;;;;;;;;;;2065138;28;20259;-58
2022/03/03 04:29:25;;;;;;;34.53;22.47;;;;;;;;;;2065274;28;20253;-59
2022/03/03 04:30:25;;;;;;;35.03;24.37;;;;;;;;;;2064986;28;20264;-58
2022/03/03 04:31:27;;;;;;;34.10;22.97;;;;;;;;;;2056568;28;20675;-59
2022/03/03 04:32:27;;;;;;;34.37;23.03;;;;;;;;;;2056557;28;20606;-61
2022/03/03 04:33:27;;;;;;;35.00;24.10;;;;;;;;;;2061662;28;20445;-60
2022/03/03 04:34:28;;;;;;;31.30;22.20;;;;;;;;;;2064672;28;20654;-58
2022/03/03 04:35:28;;;;;;;36.90;24.07;;;;;;;;;;2065016;28;20205;-59
2022/03/03 04:36:29;;;;;;;35.67;23.27;;;;;;;;;;2065077;28;20197;-60
2022/03/03 04:37:29;;;;;;;34.13;22.73;;;;;;;;;;2064415;28;20570;-60
2022/03/03 04:38:29;;;;;;;30.97;22.90;;;;;;;;;;2064465;28;20487;-57
2022/03/03 04:39:30;;;;;;;33.00;23.37;;;;;;;;;;2056570;28;20738;-57
2022/03/03 04:40:31;;;;;;;34.07;24.87;;;;;;;;;;2057738;28;20611;-59
2022/03/03 04:41:31;;;;;;;34.23;24.23;;;;;;;;;;2050316;29;20163;-56
2022/03/03 04:42:31;;;;;;;32.17;24.07;;;;;;;;;;2058145;28;20166;-58
2022/03/03 04:43:32;;;;;;;33.67;23.03;;;;;;;;;;2067007;28;20180;-58
2022/03/03 04:44:32;;;;;;;32.87;23.53;;;;;;;;;;2066348;28;20504;-61
2022/03/03 04:45:32;;;;;;;32.03;23.13;;;;;;;;;;2066669;28;20559;-57
2022/03/03 04:46:33;;;;;;;33.50;23.90;;;;;;;;;;2066852;28;20215;-59
2022/03/03 04:47:33;;;;;;;35.93;23.50;;;;;;;;;;2066588;28;20169;-58
2022/03/03 04:48:33;;;;;;;33.93;24.07;;;;;;;;;;2066688;28;20193;-59
2022/03/03 04:49:34;;;;;;;36.20;25.97;;;;;;;;;;2062003;28;20654;-56
2022/03/03 04:50:34;;;;;;;34.23;24.10;;;;;;;;;;2066794;28;20185;-61
2022/03/03 04:51:39;;;;;;;36.60;25.13;;;;;;;;;;2070323;28;20192;-60
2022/03/03 04:52:39;;;;;;;34.03;24.37;;;;;;;;;;2065280;28;20186;-59
2022/03/03 04:53:39;;;;;;;35.03;24.33;;;;;;;;;;2066577;28;20411;-61
2022/03/03 04:54:40;;;;;;;34.87;23.90;;;;;;;;;;2065890;28;20185;-59
2022/03/03 04:55:40;;;;;;;34.00;24.43;;;;;;;;;;2069041;28;20201;-60
2022/03/03 04:56:40;;;;;;;32.27;23.30;;;;;;;;;;2066510;28;20189;-60
2022/03/03 04:57:40;;;;;;;31.50;24.30;;;;;;;;;;2066739;28;20538;-61
2022/03/03 04:58:41;;;;;;;32.40;23.57;;;;;;;;;;2066114;28;20170;-58
2022/03/03 04:59:41;;;;;;;31.43;22.53;;;;;;;;;;2057936;28;20665;-58
2022/03/03 05:00:41;;;;;;;32.47;22.87;;;;;;;;;;2057812;28;20265;-60
2022/03/03 05:01:42;;;;;;;34.50;25.13;;;;;;;;;;2058058;28;20202;-58
2022/03/03 05:02:42;;;;;;;33.67;24.17;;;;;;;;;;2057740;28;20587;-58
2022/03/03 05:03:42;;;;;;;31.57;22.93;;;;;;;;;;2066551;28;20197;-59
2022/03/03 05:04:42;;;;;;;33.97;23.20;;;;;;;;;;2066326;28;20201;-60
2022/03/03 05:05:43;;;;;;;33.83;22.80;;;;;;;;;;2066509;28;20186;-61
2022/03/03 05:06:44;;;;;;;34.63;24.60;;;;;;;;;;2066228;28;20174;-60
2022/03/03 05:07:44;;;;;;;30.30;23.13;;;;;;;;;;2066555;28;20627;-60
2022/03/03 05:08:44;;;;;;;33.30;23.77;;;;;;;;;;2066405;28;20260;-59
2022/03/03 05:09:45;;;;;;;34.80;23.40;;;;;;;;;;2066454;28;20181;-61
2022/03/03 05:10:45;;;;;;;33.17;23.17;;;;;;;;;;2057958;28;20560;-59
2022/03/03 05:11:45;;;;;;;32.57;23.53;;;;;;;;;;2057842;28;20185;-60
2022/03/03 05:12:45;;;;;;;33.47;24.33;;;;;;;;;;2057800;28;20201;-59
2022/03/03 05:13:47;;;;;;;36.03;23.53;;;;;;;;;;2066611;28;20712;-61
2022/03/03 05:14:47;;;;;;;33.73;23.60;;;;;;;;;;2066060;28;20622;-59
2022/03/03 05:15:47;;;;;;;31.17;22.10;;;;;;;;;;2066497;28;20415;-60
2022/03/03 05:16:47;;;;;;;29.50;22.53;;;;;;;;;;2066507;28;20170;-58
2022/03/03 05:17:48;;;;;;;31.50;23.67;;;;;;;;;;2066467;28;20531;-59
2022/03/03 05:18:48;;;;;;;30.47;22.73;;;;;;;;;;2066468;28;20268;-60
2022/03/03 05:19:48;;;;;;;32.90;23.63;;;;;;;;;;2066524;28;20712;-60
2022/03/03 05:20:48;;;;;;;32.80;23.73;;;;;;;;;;2066253;28;20269;-60
2022/03/03 05:21:48;;;;;;;34.80;24.07;;;;;;;;;;2066231;28;20177;-59
2022/03/03 05:22:49;;;;;;;35.77;24.93;;;;;;;;;;2066005;28;20174;-54
2022/03/03 05:23:49;;;;;;;35.10;24.10;;;;;;;;;;2066075;28;20685;-59
2022/03/03 05:24:52;;;;;;;34.63;24.80;;;;;;;;;;2065338;28;20177;-58
2022/03/03 05:25:52;;;;;;;31.23;23.40;;;;;;;;;;2065883;28;20197;-59
2022/03/03 05:26:53;;;;;;;34.70;25.07;;;;;;;;;;2066657;28;20807;-59
2022/03/03 05:27:53;;;;;;;31.20;23.70;;;;;;;;;;2066587;28;20194;-59
2022/03/03 05:28:53;;;;;;;32.27;23.00;;;;;;;;;;2066542;28;20752;-60
2022/03/03 05:29:54;;;;;;;34.27;23.00;;;;;;;;;;2057706;28;20217;-60
2022/03/03 05:30:54;;;;;;;34.10;23.10;;;;;;;;;;2057772;28;20689;-60
2022/03/03 05:31:57;;;;;;;32.77;22.83;;;;;;;;;;2066591;28;20247;-59
2022/03/03 05:32:57;;;;;;;32.33;23.90;;;;;;;;;;2065963;28;20200;-60
2022/03/03 05:33:58;;;;;;;31.23;23.00;;;;;;;;;;2055596;28;20463;-60
2022/03/03 05:34:58;;;;;;;31.97;23.87;;;;;;;;;;2052099;28;20646;-61
2022/03/03 05:35:59;;;;;;;31.93;23.90;;;;;;;;;;2066108;28;20172;-60
2022/03/03 05:36:59;;;;;;;31.37;23.93;;;;;;;;;;2066257;28;20174;-60
2022/03/03 05:38:00;;;;;;;34.67;23.87;;;;;;;;;;2065785;28;20407;-60
2022/03/03 05:39:01;;;;;;;34.23;22.43;;;;;;;;;;2063893;28;20169;-58
2022/03/03 05:40:02;;;;;;;35.60;23.93;;;;;;;;;;2065755;28;20268;-61
2022/03/03 05:41:03;;;;;;;35.03;23.57;;;;;;;;;;2066130;28;20172;-59
2022/03/03 05:42:03;;;;;;;32.57;22.83;;;;;;;;;;2057648;28;20416;-60
2022/03/03 05:43:03;;;;;;;34.40;24.27;;;;;;;;;;2056910;28;20561;-58
2022/03/03 05:44:04;;;;;;;35.33;24.57;;;;;;;;;;2057142;28;20196;-61
2022/03/03 05:45:05;;;;;;;33.50;22.63;;;;;;;;;;2057259;28;20659;-60
2022/03/03 05:46:05;;;;;;;30.33;24.23;;;;;;;;;;2057511;28;20290;-59
2022/03/03 05:47:06;;;;;;;32.67;24.17;;;;;;;;;;2065985;28;20173;-61
2022/03/03 05:48:07;;;;;;;35.30;24.87;;;;;;;;;;2066211;28;20654;-58
2022/03/03 05:49:09;;;;;;;32.97;25.83;;;;;;;;;;2057294;28;20174;-58
2022/03/03 05:50:09;;;;;;;33.53;24.47;;;;;;;;;;2057488;28;20495;-59
2022/03/03 05:51:10;;;;;;;35.97;24.83;;;;;;;;;;2065683;28;20793;-59
2022/03/03 05:52:11;;;;;;;37.93;24.57;;;;;;;;;;2066262;28;20217;-60
2022/03/03 05:53:12;;;;;;;35.40;24.43;;;;;;;;;;2065811;28;20205;-62